createdAt,value
2024-05-09T00:00:59.166Z,65.38
2024-05-09T00:01:59.170Z,61.52
2024-05-09T00:02:59.194Z,64.69
2024-05-09T00:03:59.258Z,64.25
2024-05-09T00:04:59.415Z,63.42
2024-05-09T00:05:59.412Z,64.54
2024-05-09T00:06:59.341Z,64.32
2024-05-09T00:07:59.477Z,62.35
2024-05-09T00:08:59.422Z,65.11
2024-05-09T00:09:59.470Z,62.67
2024-05-09T00:10:59.611Z,60.91
2024-05-09T00:11:59.741Z,63.78
2024-05-09T00:12:59.601Z,64.66
2024-05-09T00:13:59.700Z,63.56
2024-05-09T00:14:59.701Z,62.94
2024-05-09T00:15:59.762Z,63.05
2024-05-09T00:16:59.860Z,62.12
2024-05-09T00:18:05.750Z,62.51
2024-05-09T00:19:00.146Z,62.70
2024-05-09T00:19:59.986Z,63.03
2024-05-09T00:21:00.096Z,63.06
2024-05-09T00:21:59.940Z,64.23
2024-05-09T00:23:00.006Z,62.93
2024-05-09T00:23:59.939Z,61.33
2024-05-09T00:24:59.964Z,62.17
2024-05-09T00:26:00.002Z,61.67
2024-05-09T00:26:59.941Z,62.60
2024-05-09T00:27:59.939Z,64.97
2024-05-09T00:29:00.002Z,63.97
2024-05-09T00:29:59.938Z,61.15
2024-05-09T00:30:59.962Z,63.04
2024-05-09T00:32:00.188Z,63.00
2024-05-09T00:33:00.069Z,61.89
2024-05-09T00:34:00.131Z,63.96
2024-05-09T00:34:59.999Z,63.17
2024-05-09T00:35:59.950Z,62.06
2024-05-09T00:36:59.944Z,61.39
2024-05-09T00:38:00.231Z,60.95
2024-05-09T00:38:59.947Z,61.62
2024-05-09T00:39:59.949Z,62.74
2024-05-09T00:41:00.010Z,62.53
2024-05-09T00:42:04.983Z,61.31
2024-05-09T00:42:59.952Z,61.46
2024-05-09T00:44:00.005Z,61.78
2024-05-09T00:44:59.939Z,62.25
2024-05-09T00:45:59.963Z,62.55
2024-05-09T00:46:59.979Z,61.90
2024-05-09T00:48:00.249Z,62.36
2024-05-09T00:49:00.002Z,62.17
2024-05-09T00:49:59.989Z,61.75
2024-05-09T00:51:00.110Z,60.80
2024-05-09T00:52:00.001Z,62.34
2024-05-09T00:53:00.075Z,60.89
2024-05-09T00:54:00.098Z,59.23
2024-05-09T00:55:00.170Z,61.29
2024-05-09T00:56:00.207Z,59.86
2024-05-09T00:57:00.207Z,60.20
2024-05-09T00:58:00.264Z,59.83
2024-05-09T00:59:00.312Z,60.22
2024-05-09T01:00:00.399Z,61.26
2024-05-09T01:01:00.483Z,60.57
2024-05-09T01:02:00.496Z,61.53
2024-05-09T01:03:00.646Z,61.16
2024-05-09T01:04:00.653Z,63.30
2024-05-09T01:05:00.746Z,60.55
2024-05-09T01:06:01.479Z,60.09
2024-05-09T01:07:00.818Z,60.40
2024-05-09T01:08:00.958Z,58.91
2024-05-09T01:09:00.936Z,59.98
2024-05-09T01:10:01.025Z,60.01
2024-05-09T01:11:01.464Z,60.54
2024-05-09T01:12:01.417Z,59.88
2024-05-09T01:13:01.302Z,57.33
2024-05-09T01:14:01.365Z,58.85
2024-05-09T01:15:01.445Z,58.86
2024-05-09T01:16:01.522Z,59.51
2024-05-09T01:17:01.659Z,58.95
2024-05-09T01:18:02.168Z,60.07
2024-05-09T01:19:01.832Z,60.31
2024-05-09T01:20:01.927Z,60.00
2024-05-09T01:21:02.074Z,59.99
2024-05-09T01:22:07.065Z,59.67
2024-05-09T01:23:02.136Z,59.77
2024-05-09T01:24:02.046Z,59.90
2024-05-09T01:25:02.067Z,60.48
2024-05-09T01:26:02.059Z,59.46
2024-05-09T01:27:02.120Z,59.46
2024-05-09T01:28:02.097Z,60.60
2024-05-09T01:29:02.113Z,59.92
2024-05-09T01:30:03.039Z,61.79
2024-05-09T01:31:02.043Z,60.85
2024-05-09T01:32:02.137Z,59.33
2024-05-09T01:33:02.287Z,59.14
2024-05-09T01:34:02.109Z,61.37
2024-05-09T01:35:02.113Z,59.74
2024-05-09T01:36:02.077Z,60.13
2024-05-09T01:37:02.073Z,60.43
2024-05-09T01:38:02.295Z,58.04
2024-05-09T01:39:02.084Z,58.28
2024-05-09T01:40:02.060Z,57.84
2024-05-09T01:41:02.140Z,57.95
2024-05-09T01:42:02.070Z,57.78
2024-05-09T01:43:02.077Z,58.64
2024-05-09T01:44:02.150Z,57.76
2024-05-09T01:45:02.062Z,59.39
2024-05-09T01:46:02.062Z,57.98
2024-05-09T01:47:02.161Z,59.80
2024-05-09T01:48:02.785Z,57.76
2024-05-09T01:49:02.172Z,58.31
2024-05-09T01:50:02.186Z,56.84
2024-05-09T01:51:02.175Z,57.44
2024-05-09T01:52:02.097Z,56.99
2024-05-09T01:53:02.132Z,58.31
2024-05-09T01:54:02.092Z,57.18
2024-05-09T01:55:05.683Z,55.57
2024-05-09T01:56:02.175Z,55.75
2024-05-09T01:57:02.118Z,56.05
2024-05-09T01:58:02.124Z,56.50
2024-05-09T01:59:02.142Z,55.96
2024-05-09T02:00:02.094Z,58.51
2024-05-09T02:01:02.144Z,58.65
2024-05-09T02:02:02.378Z,58.17
2024-05-09T02:03:02.364Z,56.92
2024-05-09T02:04:02.637Z,56.79
2024-05-09T02:05:02.226Z,56.76
2024-05-09T02:06:02.304Z,57.72
2024-05-09T02:07:02.175Z,56.28
2024-05-09T02:08:02.241Z,57.01
2024-05-09T02:09:02.201Z,53.80
2024-05-09T02:10:04.977Z,56.84
2024-05-09T02:11:02.313Z,56.91
2024-05-09T02:12:02.304Z,57.04
2024-05-09T02:13:02.190Z,57.02
2024-05-09T02:14:02.285Z,56.89
2024-05-09T02:15:02.198Z,56.37
2024-05-09T02:16:02.222Z,56.10
2024-05-09T02:17:02.333Z,58.63
2024-05-09T02:18:02.401Z,56.26
2024-05-09T02:19:02.330Z,55.87
2024-05-09T02:20:02.665Z,57.88
2024-05-09T02:21:02.391Z,56.59
2024-05-09T02:22:02.194Z,55.98
2024-05-09T02:23:02.290Z,58.34
2024-05-09T02:24:02.260Z,55.98
2024-05-09T02:25:02.261Z,56.08
2024-05-09T02:26:02.280Z,57.77
2024-05-09T02:27:02.307Z,56.56
2024-05-09T02:28:02.234Z,54.50
2024-05-09T02:29:02.295Z,56.15
2024-05-09T02:30:02.273Z,55.98
2024-05-09T02:31:02.458Z,54.41
2024-05-09T02:32:02.300Z,56.64
2024-05-09T02:33:02.355Z,54.09
2024-05-09T02:34:26.921Z,50.00
2024-05-09T02:35:26.901Z,50.00
2024-05-09T02:36:26.810Z,50.00
2024-05-09T02:37:26.836Z,50.00
2024-05-09T02:38:26.843Z,50.00
2024-05-09T02:39:26.828Z,51.01
2024-05-09T02:40:35.570Z,52.10
2024-05-09T02:41:27.955Z,52.12
2024-05-09T02:42:26.855Z,52.34
2024-05-09T02:43:26.859Z,52.39
2024-05-09T02:44:26.936Z,50.77
2024-05-09T02:45:26.883Z,49.54
2024-05-09T02:46:26.929Z,50.00
2024-05-09T02:47:27.018Z,52.16
2024-05-09T02:48:27.100Z,50.65
2024-05-09T02:49:27.041Z,53.64
2024-05-09T02:50:34.424Z,50.42
2024-05-09T02:51:27.934Z,50.65
2024-05-09T02:52:26.954Z,50.82
2024-05-09T02:53:26.963Z,51.23
2024-05-09T02:54:26.932Z,51.16
2024-05-09T02:55:26.939Z,52.53
2024-05-09T02:56:27.052Z,51.93
2024-05-09T02:57:27.001Z,54.07
2024-05-09T02:58:26.993Z,51.20
2024-05-09T02:59:27.059Z,53.81
2024-05-09T03:00:35.210Z,51.56
2024-05-09T03:01:28.060Z,51.66
2024-05-09T03:02:27.077Z,51.83
2024-05-09T03:03:27.501Z,52.79
2024-05-09T03:04:27.048Z,51.48
2024-05-09T03:05:27.012Z,52.46
2024-05-09T03:06:27.019Z,53.13
2024-05-09T03:07:27.022Z,52.87
2024-05-09T03:08:27.110Z,53.14
2024-05-09T03:09:27.045Z,51.97
2024-05-09T03:11:27.235Z,52.79
2024-05-09T03:12:27.121Z,54.36
2024-05-09T03:13:27.224Z,54.25
2024-05-09T03:14:27.190Z,52.85
2024-05-09T03:15:27.213Z,54.28
2024-05-09T03:16:27.309Z,51.93
2024-05-09T03:17:27.591Z,53.01
2024-05-09T03:18:27.707Z,53.50
2024-05-09T03:19:27.681Z,52.61
2024-05-09T03:20:33.223Z,52.01
2024-05-09T03:21:28.692Z,52.13
2024-05-09T03:22:27.752Z,52.31
2024-05-09T03:23:27.692Z,52.50
2024-05-09T03:24:27.689Z,52.53
2024-05-09T03:25:27.697Z,53.86
2024-05-09T03:26:27.781Z,51.82
2024-05-09T03:27:27.701Z,52.84
2024-05-09T03:28:27.718Z,54.87
2024-05-09T03:29:27.746Z,51.76
2024-05-09T03:30:36.084Z,52.58
2024-05-09T03:31:28.812Z,52.69
2024-05-09T03:32:28.020Z,52.94
2024-05-09T03:33:28.083Z,52.22
2024-05-09T03:34:28.009Z,53.35
2024-05-09T03:35:27.961Z,54.00
2024-05-09T03:36:27.869Z,53.20
2024-05-09T03:37:27.875Z,53.54
2024-05-09T03:38:27.941Z,51.93
2024-05-09T03:39:27.862Z,53.28
2024-05-09T03:40:31.003Z,52.38
2024-05-09T03:41:27.909Z,52.35
2024-05-09T03:42:27.882Z,55.85
2024-05-09T03:43:27.873Z,52.81
2024-05-09T03:44:27.991Z,52.47
2024-05-09T03:45:27.863Z,51.77
2024-05-09T03:46:27.892Z,54.07
2024-05-09T03:47:28.175Z,53.35
2024-05-09T03:48:28.020Z,55.34
2024-05-09T03:49:27.950Z,51.70
2024-05-09T03:50:33.719Z,50.02
2024-05-09T03:51:28.905Z,50.23
2024-05-09T03:52:27.935Z,50.89
2024-05-09T03:53:28.046Z,51.04
2024-05-09T03:54:27.899Z,52.59
2024-05-09T03:55:27.891Z,54.32
2024-05-09T03:56:27.983Z,52.58
2024-05-09T03:57:27.940Z,54.27
2024-05-09T03:58:27.949Z,51.37
2024-05-09T03:59:28.034Z,54.60
2024-05-09T04:00:35.269Z,53.52
2024-05-09T04:01:29.003Z,53.63
2024-05-09T04:02:28.132Z,53.67
2024-05-09T04:03:28.266Z,53.64
2024-05-09T04:04:27.989Z,53.32
2024-05-09T04:05:28.080Z,52.66
2024-05-09T04:06:27.980Z,52.78
2024-05-09T04:07:27.986Z,51.01
2024-05-09T04:08:28.025Z,51.85
2024-05-09T04:09:27.990Z,51.79
2024-05-09T04:10:33.022Z,51.67
2024-05-09T04:11:29.064Z,51.81
2024-05-09T04:12:28.058Z,52.42
2024-05-09T04:13:28.015Z,51.96
2024-05-09T04:14:28.078Z,51.15
2024-05-09T04:15:28.019Z,52.54
2024-05-09T04:16:28.037Z,51.74
2024-05-09T04:17:28.238Z,52.88
2024-05-09T04:18:28.132Z,51.66
2024-05-09T04:19:28.257Z,54.36
2024-05-09T04:20:37.105Z,50.73
2024-05-09T04:21:29.054Z,50.92
2024-05-09T04:22:28.052Z,50.98
2024-05-09T04:23:28.168Z,51.88
2024-05-09T04:24:28.050Z,51.74
2024-05-09T04:25:28.052Z,53.40
2024-05-09T04:26:28.098Z,53.38
2024-05-09T04:27:28.072Z,53.89
2024-05-09T04:28:28.071Z,54.34
2024-05-09T04:29:28.238Z,54.00
2024-05-09T04:30:35.000Z,52.88
2024-05-09T04:31:29.122Z,52.91
2024-05-09T04:32:28.263Z,53.37
2024-05-09T04:33:28.301Z,53.28
2024-05-09T04:34:28.227Z,52.63
2024-05-09T04:35:28.279Z,55.43
2024-05-09T04:36:28.135Z,53.93
2024-05-09T04:37:28.131Z,52.96
2024-05-09T04:38:28.186Z,54.77
2024-05-09T04:39:28.153Z,53.23
2024-05-09T04:40:33.505Z,52.34
2024-05-09T04:41:29.246Z,52.39
2024-05-09T04:42:28.200Z,52.80
2024-05-09T04:43:28.191Z,53.18
2024-05-09T04:44:28.332Z,51.36
2024-05-09T04:45:28.198Z,52.69
2024-05-09T04:46:28.197Z,53.44
2024-05-09T04:47:28.405Z,51.15
2024-05-09T04:48:28.473Z,52.47
2024-05-09T04:49:28.275Z,53.18
2024-05-09T04:50:35.727Z,52.00
2024-05-09T04:51:29.192Z,52.03
2024-05-09T04:52:28.177Z,52.52
2024-05-09T04:53:28.206Z,52.59
2024-05-09T04:54:34.322Z,52.55
2024-05-09T04:55:29.183Z,52.17
2024-05-09T04:56:28.240Z,52.60
2024-05-09T04:57:28.193Z,51.31
2024-05-09T04:58:28.202Z,51.24
2024-05-09T04:59:28.249Z,52.81
2024-05-09T05:00:35.019Z,50.00
2024-05-09T05:01:29.281Z,50.20
2024-05-09T05:02:28.326Z,50.70
2024-05-09T05:03:28.366Z,52.43
2024-05-09T05:04:28.288Z,52.00
2024-05-09T05:05:28.322Z,50.75
2024-05-09T05:06:28.229Z,51.74
2024-05-09T05:07:28.233Z,50.02
2024-05-09T05:08:28.383Z,51.07
2024-05-09T05:09:28.242Z,53.03
2024-05-09T05:10:33.680Z,51.40
2024-05-09T05:11:29.348Z,51.54
2024-05-09T05:12:28.418Z,51.89
2024-05-09T05:13:28.273Z,52.53
2024-05-09T05:14:28.293Z,52.61
2024-05-09T05:15:28.227Z,54.49
2024-05-09T05:16:28.239Z,52.07
2024-05-09T05:17:28.369Z,53.71
2024-05-09T05:18:28.613Z,55.08
2024-05-09T05:19:28.292Z,51.92
2024-05-09T05:20:33.500Z,52.31
2024-05-09T05:21:29.294Z,52.40
2024-05-09T05:22:28.244Z,52.56
2024-05-09T05:23:28.362Z,52.52
2024-05-09T05:24:28.246Z,53.30
2024-05-09T05:25:28.250Z,52.08
2024-05-09T05:26:28.311Z,52.51
2024-05-09T05:27:28.309Z,52.65
2024-05-09T05:28:28.285Z,52.68
2024-05-09T05:29:28.304Z,51.00
2024-05-09T05:30:32.916Z,54.28
2024-05-09T05:31:29.362Z,54.32
2024-05-09T05:32:28.497Z,54.32
2024-05-09T05:33:28.533Z,53.44
2024-05-09T05:34:28.367Z,53.51
2024-05-09T05:35:28.564Z,55.13
2024-05-09T05:36:28.367Z,53.65
2024-05-09T05:37:28.439Z,54.32
2024-05-09T05:38:28.861Z,52.43
2024-05-09T05:39:28.391Z,52.15
2024-05-09T05:40:35.763Z,55.86
2024-05-09T05:41:29.422Z,55.90
2024-05-09T05:42:28.435Z,55.59
2024-05-09T05:43:28.375Z,54.80
2024-05-09T05:44:28.510Z,55.20
2024-05-09T05:45:28.386Z,53.52
2024-05-09T05:46:28.392Z,54.93
2024-05-09T05:47:28.516Z,54.00
2024-05-09T05:48:28.520Z,55.33
2024-05-09T05:49:28.508Z,53.43
2024-05-09T05:50:35.434Z,53.16
2024-05-09T05:51:29.494Z,53.21
2024-05-09T05:52:28.537Z,53.61
2024-05-09T05:53:28.590Z,54.19
2024-05-09T05:54:28.559Z,52.73
2024-05-09T05:55:28.515Z,52.86
2024-05-09T05:56:28.585Z,54.30
2024-05-09T05:57:29.080Z,51.40
2024-05-09T05:58:28.518Z,52.67
2024-05-09T05:59:28.591Z,52.64
2024-05-09T06:00:34.895Z,54.01
2024-05-09T06:01:29.555Z,54.11
2024-05-09T06:02:28.604Z,54.16
2024-05-09T06:03:28.645Z,54.54
2024-05-09T06:04:28.533Z,54.77
2024-05-09T06:05:28.568Z,53.69
2024-05-09T06:06:28.568Z,52.88
2024-05-09T06:07:28.583Z,53.27
2024-05-09T06:08:30.336Z,52.91
2024-05-09T06:09:28.594Z,53.29
2024-05-09T06:10:35.189Z,53.58
2024-05-09T06:11:29.675Z,53.68
2024-05-09T06:12:28.652Z,53.81
2024-05-09T06:13:28.571Z,53.77
2024-05-09T06:14:28.765Z,52.12
2024-05-09T06:15:28.592Z,53.84
2024-05-09T06:16:28.591Z,54.43
2024-05-09T06:17:28.725Z,53.07
2024-05-09T06:18:28.761Z,51.46
2024-05-09T06:19:28.777Z,52.42
2024-05-09T06:20:35.263Z,52.35
2024-05-09T06:21:29.754Z,52.45
2024-05-09T06:22:28.685Z,52.37
2024-05-09T06:23:28.756Z,52.26
2024-05-09T06:24:28.660Z,52.66
2024-05-09T06:25:28.651Z,49.68
2024-05-09T06:26:28.682Z,51.66
2024-05-09T06:27:28.675Z,53.60
2024-05-09T06:28:28.675Z,52.05
2024-05-09T06:29:28.846Z,51.28
2024-05-09T06:30:37.011Z,53.48
2024-05-09T06:31:29.731Z,53.56
2024-05-09T06:32:28.782Z,53.67
2024-05-09T06:33:29.045Z,53.88
2024-05-09T06:34:28.823Z,52.71
2024-05-09T06:35:28.815Z,52.19
2024-05-09T06:36:28.741Z,53.29
2024-05-09T06:37:28.739Z,52.25
2024-05-09T06:38:28.772Z,53.49
2024-05-09T06:39:28.751Z,52.87
2024-05-09T06:40:36.661Z,51.04
2024-05-09T06:41:29.928Z,51.27
2024-05-09T06:42:28.775Z,51.61
2024-05-09T06:43:28.780Z,52.00
2024-05-09T06:44:28.839Z,52.62
2024-05-09T06:45:28.806Z,53.16
2024-05-09T06:46:28.805Z,51.41
2024-05-09T06:47:28.973Z,51.72
2024-05-09T06:48:28.940Z,52.25
2024-05-09T06:49:28.925Z,52.96
2024-05-09T06:50:35.723Z,51.95
2024-05-09T06:51:29.791Z,52.07
2024-05-09T06:52:28.805Z,52.30
2024-05-09T06:53:28.924Z,52.83
2024-05-09T06:54:28.787Z,52.88
2024-05-09T06:55:28.794Z,52.26
2024-05-09T06:56:28.939Z,55.44
2024-05-09T06:57:28.871Z,54.32
2024-05-09T06:58:28.880Z,53.40
2024-05-09T06:59:29.137Z,52.91
2024-05-09T07:00:35.775Z,54.27
2024-05-09T07:01:29.903Z,54.37
2024-05-09T07:02:28.966Z,54.41
2024-05-09T07:03:28.969Z,54.67
2024-05-09T07:04:28.958Z,53.24
2024-05-09T07:05:28.887Z,53.08
2024-05-09T07:06:28.854Z,53.47
2024-05-09T07:07:28.853Z,53.74
2024-05-09T07:08:28.892Z,53.85
2024-05-09T07:09:28.896Z,52.69
2024-05-09T07:10:37.197Z,50.00
2024-05-09T07:11:36.621Z,50.00
2024-05-09T07:12:36.591Z,50.00
2024-05-09T07:13:36.602Z,50.00
2024-05-09T07:14:38.152Z,50.00
2024-05-09T07:15:36.598Z,53.03
2024-05-09T07:16:36.614Z,51.07
2024-05-09T07:17:36.754Z,54.97
2024-05-09T07:18:36.893Z,51.60
2024-05-09T07:19:36.722Z,52.36
2024-05-09T07:20:36.645Z,50.73
2024-05-09T07:21:36.631Z,52.15
2024-05-09T07:22:36.658Z,51.73
2024-05-09T07:23:36.808Z,50.10
2024-05-09T07:24:36.739Z,50.44
2024-05-09T07:25:36.768Z,53.01
2024-05-09T07:26:36.874Z,50.00
2024-05-09T07:27:36.859Z,50.69
2024-05-09T07:28:36.866Z,52.31
2024-05-09T07:29:38.682Z,52.63
2024-05-09T07:30:36.994Z,53.10
2024-05-09T07:31:37.030Z,53.96
2024-05-09T07:32:37.493Z,54.23
2024-05-09T07:33:37.255Z,54.52
2024-05-09T07:34:37.180Z,54.85
2024-05-09T07:35:37.360Z,51.07
2024-05-09T07:36:37.247Z,51.06
2024-05-09T07:37:37.388Z,52.88
2024-05-09T07:38:37.577Z,53.15
2024-05-09T07:39:37.366Z,52.37
2024-05-09T07:40:37.399Z,54.00
2024-05-09T07:41:37.630Z,51.52
2024-05-09T07:42:42.523Z,51.44
2024-05-09T07:43:37.477Z,51.61
2024-05-09T07:44:37.559Z,51.88
2024-05-09T07:45:48.595Z,52.96
2024-05-09T07:47:47.319Z,51.60
2024-05-09T07:48:58.078Z,51.68
2024-05-09T07:53:33.823Z,51.89
2024-05-09T07:53:43.868Z,52.01
2024-05-09T07:54:38.615Z,52.10
2024-05-09T07:55:37.696Z,53.99
2024-05-09T07:56:37.646Z,55.52
2024-05-09T07:57:37.549Z,57.66
2024-05-09T07:58:37.525Z,58.87
2024-05-09T07:59:38.017Z,58.89
2024-05-09T08:00:37.613Z,55.20
2024-05-09T08:01:37.610Z,54.57
2024-05-09T08:02:37.582Z,56.11
2024-05-09T08:03:37.779Z,52.32
2024-05-09T08:04:37.658Z,53.02
2024-05-09T08:05:37.653Z,51.48
2024-05-09T08:06:37.542Z,51.37
2024-05-09T08:07:37.535Z,52.13
2024-05-09T08:08:37.540Z,52.90
2024-05-09T08:09:38.684Z,51.45
2024-05-09T08:10:37.628Z,52.49
2024-05-09T08:11:37.564Z,52.92
2024-05-09T08:12:37.574Z,50.61
2024-05-09T08:13:37.605Z,53.85
2024-05-09T08:14:37.566Z,52.88
2024-05-09T08:15:37.571Z,51.10
2024-05-09T08:16:37.600Z,53.72
2024-05-09T08:17:37.697Z,50.55
2024-05-09T08:18:37.919Z,51.82
2024-05-09T08:19:37.685Z,52.47
2024-05-09T08:20:37.583Z,52.46
2024-05-09T08:21:37.636Z,50.44
2024-05-09T08:22:37.579Z,52.99
2024-05-09T08:23:37.575Z,53.52
2024-05-09T08:24:37.611Z,53.99
2024-05-09T08:25:37.594Z,52.93
2024-05-09T08:26:37.613Z,54.47
2024-05-09T08:27:37.683Z,52.94
2024-05-09T08:28:37.706Z,53.53
2024-05-09T08:29:37.766Z,51.67
2024-05-09T08:30:38.436Z,52.94
2024-05-09T08:31:37.896Z,51.90
2024-05-09T08:32:37.900Z,50.63
2024-05-09T08:33:38.041Z,50.12
2024-05-09T08:34:38.066Z,53.45
2024-05-09T08:35:38.036Z,55.38
2024-05-09T08:36:38.090Z,54.30
2024-05-09T08:37:40.568Z,54.99
2024-05-09T08:38:38.112Z,55.03
2024-05-09T08:39:38.134Z,56.19
2024-05-09T08:40:38.506Z,54.60
2024-05-09T08:41:38.123Z,55.64
2024-05-09T08:42:38.172Z,55.01
2024-05-09T08:43:39.901Z,53.12
2024-05-09T08:44:38.126Z,53.27
2024-05-09T08:45:38.174Z,53.26
2024-05-09T08:46:38.180Z,53.30
2024-05-09T08:47:38.189Z,52.00
2024-05-09T08:48:38.339Z,53.01
2024-05-09T08:49:39.921Z,53.94
2024-05-09T08:50:39.701Z,53.98
2024-05-09T08:51:38.160Z,54.10
2024-05-09T08:52:38.143Z,54.17
2024-05-09T08:53:38.170Z,53.05
2024-05-09T08:54:38.169Z,53.17
2024-05-09T08:55:40.487Z,55.84
2024-05-09T08:56:38.126Z,53.99
2024-05-09T08:57:38.167Z,54.26
2024-05-09T08:58:38.127Z,54.31
2024-05-09T08:59:38.128Z,51.93
2024-05-09T09:00:38.226Z,52.10
2024-05-09T09:01:39.339Z,54.47
2024-05-09T09:02:38.302Z,55.03
2024-05-09T09:03:38.384Z,53.74
2024-05-09T09:04:38.315Z,53.23
2024-05-09T09:05:38.352Z,51.65
2024-05-09T09:06:38.179Z,51.40
2024-05-09T09:07:38.166Z,52.12
2024-05-09T09:08:38.157Z,54.32
2024-05-09T09:09:38.195Z,54.15
2024-05-09T09:10:38.196Z,50.63
2024-05-09T09:11:38.159Z,53.26
2024-05-09T09:12:38.257Z,52.21
2024-05-09T09:13:38.203Z,52.22
2024-05-09T09:14:38.278Z,52.67
2024-05-09T09:15:38.216Z,52.18
2024-05-09T09:16:38.249Z,53.52
2024-05-09T09:17:38.279Z,52.76
2024-05-09T09:18:38.773Z,51.82
2024-05-09T09:19:38.227Z,49.76
2024-05-09T09:20:38.267Z,54.75
2024-05-09T09:21:38.231Z,55.07
2024-05-09T09:22:38.202Z,52.22
2024-05-09T09:23:38.229Z,52.21
2024-05-09T09:24:38.256Z,52.95
2024-05-09T09:25:38.206Z,52.04
2024-05-09T09:26:38.230Z,55.08
2024-05-09T09:27:38.245Z,54.64
2024-05-09T09:28:38.226Z,55.21
2024-05-09T09:29:38.207Z,51.31
2024-05-09T09:30:38.362Z,54.16
2024-05-09T09:31:38.247Z,54.25
2024-05-09T09:32:38.331Z,56.11
2024-05-09T09:33:38.379Z,55.43
2024-05-09T09:34:38.277Z,52.05
2024-05-09T09:35:38.239Z,52.58
2024-05-09T09:36:38.257Z,53.32
2024-05-09T09:37:38.227Z,54.58
2024-05-09T09:38:38.231Z,56.35
2024-05-09T09:39:38.290Z,52.50
2024-05-09T09:40:42.535Z,54.66
2024-05-09T09:41:39.256Z,54.77
2024-05-09T09:42:38.340Z,54.71
2024-05-09T09:43:38.227Z,54.80
2024-05-09T09:44:42.115Z,55.10
2024-05-09T09:45:38.263Z,54.71
2024-05-09T09:46:38.279Z,53.77
2024-05-09T09:47:38.313Z,54.85
2024-05-09T09:48:38.305Z,55.97
2024-05-09T09:49:38.328Z,53.63
2024-05-09T09:50:38.239Z,53.17
2024-05-09T09:51:38.296Z,52.98
2024-05-09T09:52:38.244Z,52.11
2024-05-09T09:53:38.310Z,55.03
2024-05-09T09:54:38.252Z,54.66
2024-05-09T09:55:38.887Z,55.78
2024-05-09T09:56:38.242Z,54.69
2024-05-09T09:57:38.289Z,54.71
2024-05-09T09:58:38.233Z,54.16
2024-05-09T09:59:38.244Z,54.05
2024-05-09T10:00:38.388Z,53.02
2024-05-09T10:01:38.365Z,56.23
2024-05-09T10:02:38.332Z,55.32
2024-05-09T10:03:38.605Z,53.79
2024-05-09T10:04:38.394Z,56.92
2024-05-09T10:05:39.840Z,56.11
2024-05-09T10:06:38.284Z,54.69
2024-05-09T10:07:38.273Z,54.87
2024-05-09T10:08:38.287Z,54.83
2024-05-09T10:09:38.321Z,53.15
2024-05-09T10:10:38.380Z,55.95
2024-05-09T10:11:42.014Z,55.54
2024-05-09T10:12:39.356Z,55.70
2024-05-09T10:13:38.309Z,56.08
2024-05-09T10:14:38.333Z,56.08
2024-05-09T10:15:39.368Z,57.33
2024-05-09T10:16:38.331Z,57.69
2024-05-09T10:17:38.503Z,57.81
2024-05-09T10:18:38.590Z,57.88
2024-05-09T10:19:38.491Z,59.15
2024-05-09T10:20:38.316Z,56.30
2024-05-09T10:21:38.356Z,56.45
2024-05-09T10:22:38.320Z,55.87
2024-05-09T10:23:38.332Z,56.71
2024-05-09T10:24:38.411Z,54.67
2024-05-09T10:25:38.320Z,54.51
2024-05-09T10:26:38.327Z,54.20
2024-05-09T10:27:38.376Z,58.86
2024-05-09T10:28:38.393Z,57.18
2024-05-09T10:29:38.442Z,55.47
2024-05-09T10:30:39.419Z,58.09
2024-05-09T10:31:38.687Z,56.71
2024-05-09T10:32:38.646Z,54.25
2024-05-09T10:33:38.876Z,54.43
2024-05-09T10:34:38.698Z,56.97
2024-05-09T10:35:38.726Z,53.27
2024-05-09T10:36:38.888Z,55.70
2024-05-09T10:37:38.862Z,58.41
2024-05-09T10:38:38.942Z,56.26
2024-05-09T10:39:39.161Z,57.88
2024-05-09T10:40:39.264Z,54.83
2024-05-09T10:41:39.268Z,56.02
2024-05-09T10:42:39.366Z,59.17
2024-05-09T10:43:39.420Z,56.67
2024-05-09T10:44:39.492Z,57.37
2024-05-09T10:45:39.605Z,56.17
2024-05-09T10:46:39.649Z,55.84
2024-05-09T10:47:39.791Z,56.92
2024-05-09T10:48:40.090Z,57.34
2024-05-09T10:49:39.879Z,57.39
2024-05-09T10:50:39.978Z,59.45
2024-05-09T10:51:40.068Z,58.83
2024-05-09T10:52:40.093Z,57.97
2024-05-09T10:53:40.169Z,56.81
2024-05-09T10:54:40.330Z,57.56
2024-05-09T10:55:40.354Z,57.05
2024-05-09T10:56:40.429Z,56.64
2024-05-09T10:57:40.474Z,57.59
2024-05-09T10:58:42.767Z,55.42
2024-05-09T10:59:40.580Z,57.13
2024-05-09T11:00:40.739Z,57.12
2024-05-09T11:01:40.847Z,56.32
2024-05-09T11:02:40.951Z,57.25
2024-05-09T11:03:40.992Z,59.73
2024-05-09T11:04:40.943Z,57.87
2024-05-09T11:05:41.019Z,57.71
2024-05-09T11:06:40.928Z,56.70
2024-05-09T11:07:40.906Z,54.71
2024-05-09T11:08:40.952Z,54.64
2024-05-09T11:09:41.943Z,56.40
2024-05-09T11:10:41.093Z,58.90
2024-05-09T11:11:41.107Z,57.18
2024-05-09T11:12:41.151Z,56.93
2024-05-09T11:13:41.140Z,57.54
2024-05-09T11:14:41.164Z,56.39
2024-05-09T11:15:41.304Z,56.21
2024-05-09T11:16:41.279Z,56.61
2024-05-09T11:17:41.579Z,55.84
2024-05-09T11:18:41.599Z,57.04
2024-05-09T11:19:41.609Z,56.26
2024-05-09T11:20:41.696Z,58.61
2024-05-09T11:21:41.728Z,56.59
2024-05-09T11:22:41.769Z,55.32
2024-05-09T11:23:41.971Z,57.08
2024-05-09T11:24:41.949Z,57.90
2024-05-09T11:25:41.979Z,57.59
2024-05-09T11:26:42.066Z,57.35
2024-05-09T11:27:42.172Z,57.57
2024-05-09T11:28:42.274Z,56.97
2024-05-09T11:29:42.334Z,55.34
2024-05-09T11:30:42.440Z,55.63
2024-05-09T11:31:42.543Z,58.38
2024-05-09T11:32:42.751Z,56.46
2024-05-09T11:33:42.884Z,55.35
2024-05-09T11:34:42.967Z,57.54
2024-05-09T11:35:42.849Z,57.27
2024-05-09T11:36:43.097Z,56.66
2024-05-09T11:37:43.030Z,54.30
2024-05-09T11:38:43.296Z,55.13
2024-05-09T11:39:43.207Z,57.42
2024-05-09T11:40:43.359Z,52.64
2024-05-09T11:41:43.394Z,54.24
2024-05-09T11:42:43.473Z,51.63
2024-05-09T11:43:43.480Z,53.77
2024-05-09T11:44:43.577Z,53.22
2024-05-09T11:45:51.039Z,50.00
2024-05-09T11:46:50.974Z,50.00
2024-05-09T11:47:51.027Z,50.00
2024-05-09T11:48:51.135Z,50.00
2024-05-09T11:49:51.042Z,50.00
2024-05-09T11:50:51.034Z,50.70
2024-05-09T11:51:51.153Z,53.09
2024-05-09T11:52:51.195Z,53.41
2024-05-09T11:53:51.267Z,50.60
2024-05-09T11:54:51.401Z,50.00
2024-05-09T11:55:51.442Z,52.99
2024-05-09T11:56:51.522Z,54.15
2024-05-09T11:57:51.662Z,51.99
2024-05-09T11:58:51.670Z,52.53
2024-05-09T11:59:51.767Z,51.20
2024-05-09T12:00:52.004Z,54.10
2024-05-09T12:01:52.017Z,51.88
2024-05-09T12:02:52.123Z,54.29
2024-05-09T12:03:52.435Z,52.69
2024-05-09T12:04:52.279Z,52.52
2024-05-09T12:05:52.310Z,53.91
2024-05-09T12:06:52.223Z,53.92
2024-05-09T12:07:52.226Z,51.69
2024-05-09T12:08:52.247Z,53.68
2024-05-09T12:09:52.341Z,51.62
2024-05-09T12:10:52.445Z,53.03
2024-05-09T12:11:52.441Z,50.58
2024-05-09T12:12:52.488Z,55.63
2024-05-09T12:13:52.452Z,52.09
2024-05-09T12:14:52.494Z,51.13
2024-05-09T12:15:52.550Z,54.83
2024-05-09T12:16:52.563Z,53.35
2024-05-09T12:17:52.710Z,50.84
2024-05-09T12:18:52.907Z,52.63
2024-05-09T12:19:52.814Z,52.81
2024-05-09T12:20:52.908Z,51.49
2024-05-09T12:21:52.997Z,52.04
2024-05-09T12:22:53.061Z,50.00
2024-05-09T12:23:53.173Z,51.10
2024-05-09T12:24:53.287Z,52.46
2024-05-09T12:25:53.310Z,53.84
2024-05-09T12:26:53.416Z,50.65
2024-05-09T12:27:53.530Z,51.72
2024-05-09T12:28:53.557Z,51.19
2024-05-09T12:29:53.670Z,53.27
2024-05-09T12:30:53.751Z,51.55
2024-05-09T12:31:53.827Z,54.01
2024-05-09T12:32:54.047Z,51.99
2024-05-09T12:33:54.258Z,51.42
2024-05-09T12:34:54.090Z,51.85
2024-05-09T12:35:54.200Z,54.41
2024-05-09T12:36:54.279Z,55.58
2024-05-09T12:37:54.352Z,54.80
2024-05-09T12:38:54.429Z,54.73
2024-05-09T12:39:54.557Z,52.62
2024-05-09T12:40:54.823Z,53.16
2024-05-09T12:41:54.746Z,53.25
2024-05-09T12:42:54.877Z,54.95
2024-05-09T12:43:54.906Z,55.02
2024-05-09T12:44:54.985Z,53.47
2024-05-09T12:45:55.187Z,51.53
2024-05-09T12:46:55.154Z,55.96
2024-05-09T12:47:55.342Z,52.18
2024-05-09T12:48:55.452Z,52.43
2024-05-09T12:49:55.493Z,53.31
2024-05-09T12:50:55.533Z,51.66
2024-05-09T12:51:55.680Z,53.15
2024-05-09T12:52:55.695Z,50.60
2024-05-09T12:53:55.786Z,52.23
2024-05-09T12:54:55.917Z,54.32
2024-05-09T12:56:00.128Z,53.71
2024-05-09T12:56:56.959Z,53.76
2024-05-09T12:57:56.000Z,53.86
2024-05-09T12:58:55.985Z,54.03